Time,TemperatureF,DewpointF,PressureIn,WindDirection,WindDirectionDegrees,WindSpeedMPH,WindSpeedGustMPH,Humidity,HourlyPrecipIn,Conditions,Clouds,dailyrainin,SoftwareType,DateUTC
2013-01-29 00:02:00,50.0,45.3,30.07,SE,145,6.0,15.0,84,0.00,,,0.25,meteohub,2013-01-29 05:02:00,
2013-01-29 00:12:00,50.0,45.3,30.07,South,190,0.0,17.0,84,0.00,,,0.00,meteohub,2013-01-29 05:12:00,
2013-01-29 00:17:00,49.8,45.1,30.07,ENE,78,0.0,15.0,84,0.00,,,0.00,meteohub,2013-01-29 05:17:00,
2013-01-29 00:22:00,49.8,45.5,30.07,SSE,168,7.0,15.0,85,0.00,,,0.00,meteohub,2013-01-29 05:22:00,
2013-01-29 00:27:00,49.5,44.8,30.07,ESE,122,3.0,8.0,84,0.00,,,0.00,meteohub,2013-01-29 05:27:00,
2013-01-29 00:32:00,49.6,45.3,30.07,ENE,78,4.0,8.0,85,0.00,,,0.00,meteohub,2013-01-29 05:32:00,
2013-01-29 00:37:00,49.6,45.3,30.07,South,190,4.0,13.0,85,0.00,,,0.00,meteohub,2013-01-29 05:37:00,
2013-01-29 00:42:00,49.5,45.1,30.07,SSE,168,5.0,13.0,85,0.00,,,0.00,meteohub,2013-01-29 05:42:00,
2013-01-29 00:47:00,49.6,45.7,30.07,NW,325,8.0,13.0,86,0.00,,,0.00,meteohub,2013-01-29 05:47:00,
2013-01-29 00:52:00,49.8,45.9,30.07,WSW,258,8.0,11.0,86,0.00,,,0.00,meteohub,2013-01-29 05:52:00,
2013-01-29 00:57:00,50.0,46.0,30.07,SSW,212,5.0,11.0,86,0.00,,,0.00,meteohub,2013-01-29 05:57:00,
2013-01-29 01:02:00,50.2,45.9,30.07,SSE,168,6.0,13.0,85,0.00,,,0.00,meteohub,2013-01-29 06:02:00,
2013-01-29 01:07:00,50.0,45.7,30.07,SSW,212,6.0,13.0,85,0.00,,,0.00,meteohub,2013-01-29 06:07:00,
2013-01-29 01:12:00,49.6,45.3,30.07,SE,145,5.0,13.0,85,0.00,,,0.00,meteohub,2013-01-29 06:12:00,
2013-01-29 01:17:00,49.3,45.0,30.07,ENE,78,6.0,8.0,85,0.00,,,0.00,meteohub,2013-01-29 06:17:00,
2013-01-29 01:22:00,49.5,45.7,30.07,SSE,168,7.0,8.0,87,0.00,,,0.00,meteohub,2013-01-29 06:22:00,
2013-01-29 01:27:00,49.5,45.7,30.07,SW,235,6.0,12.0,87,0.00,,,0.00,meteohub,2013-01-29 06:27:00,
2013-01-29 01:32:00,49.5,45.7,30.07,East,100,5.0,12.0,87,0.00,,,0.00,meteohub,2013-01-29 06:32:00,
2013-01-29 01:37:00,49.5,45.7,30.07,SW,235,5.0,12.0,87,0.00,,,0.00,meteohub,2013-01-29 06:37:00,
2013-01-29 01:42:00,49.5,46.0,30.07,SE,145,4.0,12.0,88,0.00,,,0.00,meteohub,2013-01-29 06:42:00,
2013-01-29 01:47:00,49.5,46.0,30.07,West,280,7.0,12.0,88,0.00,,,0.00,meteohub,2013-01-29 06:47:00,
2013-01-29 01:52:00,49.5,46.0,30.07,West,280,6.0,12.0,88,0.00,,,0.00,meteohub,2013-01-29 06:52:00,
2013-01-29 01:57:00,49.6,46.6,30.07,SE,145,5.0,10.0,89,0.00,,,0.00,meteohub,2013-01-29 06:57:00,
2013-01-29 02:02:00,49.5,46.0,30.07,SSE,168,3.0,12.0,88,0.00,,,0.00,meteohub,2013-01-29 07:02:00,
2013-01-29 02:07:00,49.5,46.0,30.07,WSW,258,0.0,12.0,88,0.00,,,0.00,meteohub,2013-01-29 07:07:00,
2013-01-29 02:12:00,49.5,46.4,30.07,ESE,122,3.0,8.0,89,0.00,,,0.00,meteohub,2013-01-29 07:12:00,
2013-01-29 02:17:00,49.3,45.9,30.07,SE,145,6.0,8.0,88,0.00,,,0.00,meteohub,2013-01-29 07:17:00,
2013-01-29 02:22:00,49.5,46.6,30.07,ESE,122,4.0,11.0,90,0.00,,,0.00,meteohub,2013-01-29 07:22:00,
2013-01-29 02:27:00,49.6,46.8,30.07,ESE,122,3.0,11.0,90,0.00,,,0.00,meteohub,2013-01-29 07:27:00,
2013-01-29 02:32:00,50.0,47.1,30.07,West,280,9.0,13.0,90,0.00,,,0.00,meteohub,2013-01-29 07:32:00,
2013-01-29 02:37:00,50.0,47.1,30.07,WSW,258,7.0,21.0,90,0.00,,,0.00,meteohub,2013-01-29 07:37:00,
2013-01-29 02:42:00,50.2,47.7,30.07,SW,235,11.0,21.0,91,0.00,,,0.00,meteohub,2013-01-29 07:42:00,
2013-01-29 02:47:00,50.2,47.7,30.07,SSE,168,11.0,21.0,91,0.00,,,0.00,meteohub,2013-01-29 07:47:00,
2013-01-29 02:52:00,50.2,47.7,30.07,SW,235,6.0,16.0,91,0.00,,,0.00,meteohub,2013-01-29 07:52:00,
2013-01-29 03:02:00,50.2,47.7,30.07,SSE,168,8.0,14.0,91,0.00,,,0.00,meteohub,2013-01-29 08:02:00,
2013-01-29 03:07:00,50.0,47.5,30.07,WSW,258,8.0,21.0,91,0.00,,,0.00,meteohub,2013-01-29 08:07:00,
2013-01-29 03:12:00,50.2,48.0,30.07,North,10,3.0,21.0,92,0.00,,,0.00,meteohub,2013-01-29 08:12:00,
2013-01-29 03:17:00,50.2,48.0,30.07,SW,235,7.0,21.0,92,0.00,,,0.00,meteohub,2013-01-29 08:17:00,
2013-01-29 03:22:00,50.2,48.0,30.07,NE,55,3.0,16.0,92,0.00,,,0.00,meteohub,2013-01-29 08:22:00,
2013-01-29 03:27:00,50.0,47.8,30.07,West,280,5.0,16.0,92,0.00,,,0.00,meteohub,2013-01-29 08:27:00,
2013-01-29 03:32:00,49.8,47.7,30.07,SE,145,3.0,10.0,92,0.00,,,0.00,meteohub,2013-01-29 08:32:00,
2013-01-29 03:37:00,49.8,47.8,30.07,SSW,212,11.0,11.0,93,0.00,,,0.00,meteohub,2013-01-29 08:37:00,
2013-01-29 03:42:00,50.0,48.0,30.07,WNW,302,3.0,13.0,93,0.00,,,0.00,meteohub,2013-01-29 08:42:00,
2013-01-29 03:47:00,50.0,48.0,30.07,NW,325,5.0,13.0,93,0.00,,,0.00,meteohub,2013-01-29 08:47:00,
2013-01-29 03:52:00,50.0,48.0,30.07,SSW,212,7.0,13.0,93,0.00,,,0.00,meteohub,2013-01-29 08:52:00,
2013-01-29 03:57:00,50.0,48.0,30.04,SSW,212,0.0,20.0,93,0.00,,,0.00,meteohub,2013-01-29 08:57:00,
2013-01-29 04:02:00,50.0,48.0,30.04,SE,145,8.0,20.0,93,0.00,,,0.00,meteohub,2013-01-29 09:02:00,
2013-01-29 04:07:00,49.8,48.2,30.04,SW,235,3.0,11.0,94,0.00,,,0.00,meteohub,2013-01-29 09:07:00,
2013-01-29 04:12:00,49.8,47.8,30.04,NE,55,0.0,10.0,93,0.00,,,0.00,meteohub,2013-01-29 09:12:00,
2013-01-29 04:17:00,49.6,47.7,30.04,ESE,122,0.0,10.0,93,0.00,,,0.00,meteohub,2013-01-29 09:17:00,
2013-01-29 04:22:00,49.6,47.7,30.04,ENE,78,8.0,8.0,93,0.00,,,0.00,meteohub,2013-01-29 09:22:00,
2013-01-29 04:27:00,49.6,48.0,30.04,NE,55,6.0,8.0,94,0.00,,,0.00,meteohub,2013-01-29 09:27:00,
2013-01-29 04:32:00,49.6,48.0,30.04,SE,145,4.0,13.0,94,0.00,,,0.00,meteohub,2013-01-29 09:32:00,
2013-01-29 04:37:00,49.6,48.0,30.04,NE,55,3.0,13.0,94,0.00,,,0.00,meteohub,2013-01-29 09:37:00,
2013-01-29 04:42:00,49.6,48.2,30.04,SSE,168,6.0,11.0,95,0.00,,,0.00,meteohub,2013-01-29 09:42:00,
2013-01-29 04:47:00,49.6,48.2,30.04,SE,145,5.0,12.0,95,0.00,,,0.00,meteohub,2013-01-29 09:47:00,
2013-01-29 04:52:00,49.8,48.7,30.04,SE,145,0.0,16.0,96,0.00,,,0.00,meteohub,2013-01-29 09:52:00,
2013-01-29 04:57:00,49.8,48.7,30.04,WNW,302,6.0,16.0,96,0.00,,,0.00,meteohub,2013-01-29 09:57:00,
2013-01-29 05:02:00,49.8,48.7,30.04,SW,235,7.0,13.0,96,0.00,,,0.00,meteohub,2013-01-29 10:02:00,
2013-01-29 05:07:00,49.8,48.7,30.04,WSW,258,3.0,13.0,96,0.00,,,0.00,meteohub,2013-01-29 10:07:00,
2013-01-29 05:12:00,49.6,48.6,30.04,ENE,78,3.0,13.0,96,0.00,,,0.00,meteohub,2013-01-29 10:12:00,
2013-01-29 05:17:00,49.8,48.7,30.04,ESE,122,0.0,9.0,96,0.00,,,0.00,meteohub,2013-01-29 10:17:00,
2013-01-29 05:22:00,49.6,48.6,30.04,WSW,258,0.0,9.0,96,0.00,,,0.00,meteohub,2013-01-29 10:22:00,
2013-01-29 05:27:00,49.6,48.2,30.04,South,190,0.0,8.0,95,0.00,,,0.00,meteohub,2013-01-29 10:27:00,
2013-01-29 05:32:00,49.6,48.6,30.04,ESE,122,0.0,5.0,96,0.00,,,0.00,meteohub,2013-01-29 10:32:00,
2013-01-29 05:37:00,49.6,48.6,30.04,East,100,4.0,8.0,96,0.00,,,0.00,meteohub,2013-01-29 10:37:00,
2013-01-29 05:42:00,49.6,48.6,30.04,WNW,302,0.0,8.0,96,0.00,,,0.00,meteohub,2013-01-29 10:42:00,
2013-01-29 05:47:00,49.6,48.6,30.04,WNW,302,0.0,8.0,96,0.00,,,0.00,meteohub,2013-01-29 10:47:00,
2013-01-29 05:52:00,49.6,48.6,30.04,East,100,0.0,8.0,96,0.00,,,0.00,meteohub,2013-01-29 10:52:00,
2013-01-29 05:57:00,49.5,48.0,30.07,NE,55,0.0,8.0,95,0.00,,,0.00,meteohub,2013-01-29 10:57:00,
2013-01-29 06:02:00,49.1,47.7,30.07,NE,55,0.0,5.0,95,0.00,,,0.00,meteohub,2013-01-29 11:02:00,
2013-01-29 06:07:00,49.1,47.7,30.07,NE,55,2.0,5.0,95,0.00,,,0.00,meteohub,2013-01-29 11:07:00,
2013-01-29 06:12:00,49.1,47.7,30.04,SSE,168,3.0,5.0,95,0.00,,,0.00,meteohub,2013-01-29 11:12:00,
2013-01-29 06:17:00,48.9,47.5,30.04,SSE,168,3.0,5.0,95,0.00,,,0.00,meteohub,2013-01-29 11:17:00,
2013-01-29 06:22:00,48.9,47.5,30.04,SE,145,3.0,5.0,95,0.00,,,0.00,meteohub,2013-01-29 11:22:00,
2013-01-29 06:27:00,48.7,47.3,30.04,SE,145,0.0,5.0,95,0.00,,,0.00,meteohub,2013-01-29 11:27:00,
2013-01-29 06:32:00,48.7,47.3,30.04,ESE,122,0.0,4.0,95,0.00,,,0.00,meteohub,2013-01-29 11:32:00,
2013-01-29 06:37:00,48.6,47.1,30.04,South,190,4.0,4.0,95,0.00,,,0.00,meteohub,2013-01-29 11:37:00,
2013-01-29 06:42:00,48.6,47.1,30.07,SSE,168,2.0,5.0,95,0.00,,,0.00,meteohub,2013-01-29 11:42:00,
2013-01-29 06:47:00,48.6,47.1,30.07,ESE,122,3.0,5.0,95,0.00,,,0.00,meteohub,2013-01-29 11:47:00,
2013-01-29 06:52:00,48.6,47.5,30.07,ESE,122,0.0,5.0,96,0.00,,,0.00,meteohub,2013-01-29 11:52:00,
2013-01-29 06:57:00,48.4,46.9,30.07,ESE,122,0.0,3.0,95,0.00,,,0.00,meteohub,2013-01-29 11:57:00,
2013-01-29 07:02:00,48.2,46.8,30.07,ESE,122,0.0,3.0,95,0.00,,,0.00,meteohub,2013-01-29 12:02:00,
2013-01-29 07:07:00,48.2,46.8,30.07,ESE,122,0.0,0.0,95,0.00,,,0.00,meteohub,2013-01-29 12:07:00,
2013-01-29 07:12:00,48.0,46.6,30.07,ESE,122,0.0,0.0,95,0.00,,,0.00,meteohub,2013-01-29 12:12:00,
2013-01-29 07:17:00,47.8,46.4,30.07,ESE,122,3.0,0.0,95,0.00,,,0.00,meteohub,2013-01-29 12:17:00,
2013-01-29 07:22:00,47.7,46.2,30.07,ESE,122,0.0,3.0,95,0.00,,,0.00,meteohub,2013-01-29 12:22:00,
2013-01-29 07:27:00,47.5,46.0,30.07,ESE,122,0.0,3.0,95,0.00,,,0.00,meteohub,2013-01-29 12:27:00,
2013-01-29 07:32:00,47.3,45.9,30.07,ESE,122,0.0,3.0,95,0.00,,,0.00,meteohub,2013-01-29 12:32:00,
2013-01-29 07:37:00,47.3,45.9,30.07,SSW,212,0.0,0.0,95,0.00,,,0.00,meteohub,2013-01-29 12:37:00,
2013-01-29 07:42:00,47.3,46.2,30.07,SSE,168,0.0,0.0,96,0.00,,,0.00,meteohub,2013-01-29 12:42:00,
2013-01-29 07:47:00,47.3,46.2,30.07,SE,145,0.0,0.0,96,0.00,,,0.00,meteohub,2013-01-29 12:47:00,
2013-01-29 07:52:00,47.5,46.4,30.07,SE,145,0.0,0.0,96,0.00,,,0.00,meteohub,2013-01-29 12:52:00,
2013-01-29 07:57:00,47.3,46.2,30.07,ESE,122,0.0,0.0,96,0.00,,,0.00,meteohub,2013-01-29 12:57:00,
2013-01-29 08:02:00,47.1,46.0,30.07,South,190,0.0,0.0,96,0.00,,,0.00,meteohub,2013-01-29 13:02:00,
2013-01-29 08:07:00,47.3,46.2,30.07,South,190,0.0,0.0,96,0.00,,,0.00,meteohub,2013-01-29 13:07:00,
2013-01-29 08:12:00,47.5,46.8,30.10,SSE,168,0.0,0.0,97,0.00,,,0.00,meteohub,2013-01-29 13:12:00,
2013-01-29 08:17:00,47.3,46.2,30.10,NNW,348,3.0,0.0,96,0.00,,,0.00,meteohub,2013-01-29 13:17:00,
2013-01-29 08:22:00,47.1,45.7,30.10,East,100,0.0,3.0,95,0.00,,,0.00,meteohub,2013-01-29 13:22:00,
2013-01-29 08:27:00,47.3,46.2,30.10,ESE,122,0.0,3.0,96,0.00,,,0.00,meteohub,2013-01-29 13:27:00,
2013-01-29 08:32:00,47.5,46.4,30.10,ESE,122,0.0,3.0,96,0.00,,,0.00,meteohub,2013-01-29 13:32:00,
2013-01-29 08:37:00,47.7,46.9,30.10,ESE,122,0.0,0.0,97,0.00,,,0.00,meteohub,2013-01-29 13:37:00,
2013-01-29 08:42:00,47.8,46.8,30.10,NW,325,0.0,0.0,96,0.00,,,0.00,meteohub,2013-01-29 13:42:00,
2013-01-29 08:47:00,47.8,46.8,30.10,WNW,302,0.0,0.0,96,0.00,,,0.00,meteohub,2013-01-29 13:47:00,
2013-01-29 08:52:00,48.2,47.1,30.10,SSE,168,0.0,0.0,96,0.00,,,0.00,meteohub,2013-01-29 13:52:00,
2013-01-29 08:57:00,48.6,47.5,30.10,ESE,122,0.0,0.0,96,0.00,,,0.00,meteohub,2013-01-29 13:57:00,
2013-01-29 09:02:00,48.7,47.7,30.10,WNW,302,0.0,3.0,96,0.00,,,0.00,meteohub,2013-01-29 14:02:00,
2013-01-29 09:07:00,48.9,47.8,30.10,North,10,0.0,3.0,96,0.00,,,0.00,meteohub,2013-01-29 14:07:00,
2013-01-29 09:12:00,49.1,48.0,30.10,South,190,3.0,3.0,96,0.00,,,0.00,meteohub,2013-01-29 14:12:00,
2013-01-29 09:17:00,49.5,48.4,30.10,SSW,212,0.0,4.0,96,0.00,,,0.00,meteohub,2013-01-29 14:17:00,
2013-01-29 09:22:00,50.2,49.1,30.10,ESE,122,0.0,4.0,96,0.00,,,0.00,meteohub,2013-01-29 14:22:00,
2013-01-29 09:27:00,50.4,49.3,30.10,ENE,78,0.0,4.0,96,0.00,,,0.00,meteohub,2013-01-29 14:27:00,
2013-01-29 09:32:00,50.9,49.8,30.10,ENE,78,0.0,0.0,96,0.00,,,0.00,meteohub,2013-01-29 14:32:00,
2013-01-29 09:37:00,51.4,50.4,30.10,ENE,78,0.0,0.0,96,0.00,,,0.00,meteohub,2013-01-29 14:37:00,
2013-01-29 09:42:00,52.0,50.5,30.10,ESE,122,2.0,4.0,95,0.00,,,0.00,meteohub,2013-01-29 14:42:00,
2013-01-29 09:47:00,52.3,50.9,30.10,ESE,122,0.0,4.0,95,0.00,,,0.00,meteohub,2013-01-29 14:47:00,
2013-01-29 09:52:00,53.8,52.3,30.10,ESE,122,0.0,4.0,95,0.00,,,0.00,meteohub,2013-01-29 14:52:00,
2013-01-29 09:57:00,55.6,54.5,30.10,ESE,122,0.0,4.0,96,0.00,,,0.00,meteohub,2013-01-29 14:57:00,
2013-01-29 10:02:00,56.8,55.4,30.10,ESE,122,0.0,3.0,95,0.00,,,0.00,meteohub,2013-01-29 15:02:00,
2013-01-29 10:07:00,57.2,55.8,30.10,ESE,122,0.0,0.0,95,0.00,,,0.00,meteohub,2013-01-29 15:07:00,
2013-01-29 10:12:00,59.0,56.3,30.10,ESE,122,0.0,0.0,91,0.00,,,0.00,meteohub,2013-01-29 15:12:00,
2013-01-29 10:17:00,58.8,55.9,30.10,SSE,168,4.0,5.0,90,0.00,,,0.00,meteohub,2013-01-29 15:17:00,
2013-01-29 10:22:00,57.9,52.2,30.10,SE,145,5.0,5.0,81,0.00,,,0.00,meteohub,2013-01-29 15:22:00,
2013-01-29 10:27:00,58.5,52.0,30.10,ESE,122,0.0,7.0,79,0.00,,,0.00,meteohub,2013-01-29 15:27:00,
2013-01-29 10:32:00,59.2,50.5,30.10,North,10,0.0,7.0,73,0.00,,,0.00,meteohub,2013-01-29 15:32:00,
2013-01-29 10:37:00,59.2,49.5,30.10,ENE,78,4.0,7.0,70,0.00,,,0.00,meteohub,2013-01-29 15:37:00,
2013-01-29 10:42:00,60.1,50.7,30.10,WSW,258,6.0,9.0,71,0.00,,,0.00,meteohub,2013-01-29 15:42:00,
2013-01-29 10:47:00,61.0,48.7,30.10,NE,55,5.0,9.0,64,0.00,,,0.00,meteohub,2013-01-29 15:47:00,
2013-01-29 10:52:00,61.9,50.0,30.10,WSW,258,3.0,9.0,65,0.00,,,0.00,meteohub,2013-01-29 15:52:00,
2013-01-29 10:57:00,62.2,49.5,30.07,ENE,78,3.0,9.0,63,0.00,,,0.00,meteohub,2013-01-29 15:57:00,
2013-01-29 11:02:00,62.4,47.5,30.07,East,100,3.0,8.0,58,0.00,,,0.00,meteohub,2013-01-29 16:02:00,
2013-01-29 11:12:00,63.0,44.6,30.07,SSW,212,5.0,12.0,51,0.00,,,0.00,meteohub,2013-01-29 16:12:00,
2013-01-29 11:17:00,63.3,43.9,30.07,NNW,348,7.0,12.0,49,0.00,,,0.00,meteohub,2013-01-29 16:17:00,
2013-01-29 11:22:00,63.9,45.0,30.07,West,280,4.0,11.0,50,0.00,,,0.00,meteohub,2013-01-29 16:22:00,
2013-01-29 11:27:00,64.4,44.2,30.07,NW,325,3.0,11.0,48,0.00,,,0.00,meteohub,2013-01-29 16:27:00,
2013-01-29 11:32:00,64.9,45.9,30.07,WNW,302,6.0,10.0,50,0.00,,,0.00,meteohub,2013-01-29 16:32:00,
2013-01-29 11:37:00,64.9,44.2,30.07,WNW,302,0.0,11.0,47,0.00,,,0.00,meteohub,2013-01-29 16:37:00,
2013-01-29 11:42:00,64.2,43.5,30.07,NW,325,8.0,11.0,47,0.00,,,0.00,meteohub,2013-01-29 16:42:00,
2013-01-29 11:47:00,65.5,43.5,30.07,WNW,302,13.0,13.0,45,0.00,,,0.00,meteohub,2013-01-29 16:47:00,
2013-01-29 11:52:00,65.8,43.9,30.07,WNW,302,7.0,15.0,45,0.00,,,0.00,meteohub,2013-01-29 16:52:00,
2013-01-29 11:57:00,65.1,42.6,30.07,NNW,348,13.0,15.0,44,0.00,,,0.00,meteohub,2013-01-29 16:57:00,
2013-01-29 12:02:00,65.3,43.5,30.07,NNW,348,8.0,17.0,45,0.00,,,0.00,meteohub,2013-01-29 17:02:00,
2013-01-29 12:07:00,66.0,43.5,30.07,NW,325,12.0,17.0,44,0.00,,,0.00,meteohub,2013-01-29 17:07:00,
2013-01-29 12:12:00,66.6,44.1,30.04,North,10,7.0,17.0,44,0.00,,,0.00,meteohub,2013-01-29 17:12:00,
2013-01-29 12:17:00,66.9,44.2,30.04,WNW,302,5.0,15.0,44,0.00,,,0.00,meteohub,2013-01-29 17:17:00,
2013-01-29 12:22:00,66.6,43.3,30.04,North,10,7.0,15.0,43,0.00,,,0.00,meteohub,2013-01-29 17:22:00,
2013-01-29 12:27:00,67.1,44.4,30.01,NNW,348,6.0,13.0,44,0.00,,,0.00,meteohub,2013-01-29 17:27:00,
2013-01-29 12:32:00,68.7,45.9,30.01,NW,325,2.0,13.0,44,0.00,,,0.00,meteohub,2013-01-29 17:32:00,
2013-01-29 12:37:00,68.9,45.0,30.01,WNW,302,8.0,11.0,42,0.00,,,0.00,meteohub,2013-01-29 17:37:00,
2013-01-29 12:42:00,70.5,46.4,30.04,NE,55,8.0,13.0,42,0.00,,,0.00,meteohub,2013-01-29 17:42:00,
2013-01-29 12:47:00,70.2,43.3,30.04,NNW,348,16.0,16.0,38,0.00,,,0.00,meteohub,2013-01-29 17:47:00,
2013-01-29 12:52:00,70.3,45.5,30.04,WNW,302,7.0,16.0,41,0.00,,,0.00,meteohub,2013-01-29 17:52:00,
2013-01-29 12:57:00,71.1,43.5,30.04,SW,235,12.0,16.0,37,0.00,,,0.00,meteohub,2013-01-29 17:57:00,
2013-01-29 13:02:00,70.0,42.6,30.04,WNW,302,3.0,16.0,37,0.00,,,0.00,meteohub,2013-01-29 18:02:00,
2013-01-29 13:12:00,68.7,42.1,30.04,WNW,302,11.0,17.0,38,0.00,,,0.00,meteohub,2013-01-29 18:12:00,
2013-01-29 13:17:00,67.6,41.9,30.04,NNW,348,13.0,17.0,39,0.00,,,0.00,meteohub,2013-01-29 18:17:00,
2013-01-29 13:22:00,66.6,41.5,30.04,NNW,348,9.0,17.0,40,0.00,,,0.00,meteohub,2013-01-29 18:22:00,
2013-01-29 13:27:00,67.5,43.5,30.01,NW,325,11.0,15.0,42,0.00,,,0.00,meteohub,2013-01-29 18:27:00,
2013-01-29 13:32:00,68.0,44.1,30.01,North,10,6.0,13.0,42,0.00,,,0.00,meteohub,2013-01-29 18:32:00,
2013-01-29 13:37:00,69.4,44.8,30.01,West,280,4.0,12.0,41,0.00,,,0.00,meteohub,2013-01-29 18:37:00,
2013-01-29 13:42:00,69.8,42.4,29.99,NNW,348,6.0,12.0,37,0.00,,,0.00,meteohub,2013-01-29 18:42:00,
2013-01-29 13:47:00,69.4,42.8,29.99,NNW,348,6.0,14.0,38,0.00,,,0.00,meteohub,2013-01-29 18:47:00,
2013-01-29 13:52:00,70.0,42.6,29.99,NNW,348,5.0,16.0,37,0.00,,,0.00,meteohub,2013-01-29 18:52:00,
2013-01-29 13:57:00,70.2,42.6,29.99,North,10,4.0,16.0,37,0.00,,,0.00,meteohub,2013-01-29 18:57:00,
2013-01-29 14:02:00,71.1,43.5,29.99,WNW,302,3.0,16.0,37,0.00,,,0.00,meteohub,2013-01-29 19:02:00,
2013-01-29 14:07:00,70.0,41.9,29.99,NNE,32,5.0,12.0,36,0.00,,,0.00,meteohub,2013-01-29 19:07:00,
2013-01-29 14:17:00,69.4,42.8,29.96,NE,55,5.0,11.0,38,0.00,,,0.00,meteohub,2013-01-29 19:17:00,
2013-01-29 14:22:00,69.6,42.3,29.96,WNW,302,5.0,15.0,37,0.00,,,0.00,meteohub,2013-01-29 19:22:00,
2013-01-29 14:27:00,70.0,42.6,29.99,WNW,302,3.0,15.0,37,0.00,,,0.00,meteohub,2013-01-29 19:27:00,
2013-01-29 14:32:00,69.8,42.4,29.99,WNW,302,6.0,12.0,37,0.00,,,0.00,meteohub,2013-01-29 19:32:00,
2013-01-29 14:37:00,70.2,41.9,29.99,NNW,348,9.0,13.0,36,0.00,,,0.00,meteohub,2013-01-29 19:37:00,
2013-01-29 14:42:00,69.8,41.7,29.99,NNW,348,11.0,13.0,36,0.00,,,0.00,meteohub,2013-01-29 19:42:00,
2013-01-29 14:47:00,70.9,42.6,29.99,NNW,348,5.0,13.0,36,0.00,,,0.00,meteohub,2013-01-29 19:47:00,
2013-01-29 14:52:00,72.3,43.2,29.99,NNW,348,5.0,15.0,35,0.00,,,0.00,meteohub,2013-01-29 19:52:00,
2013-01-29 14:57:00,72.5,41.7,29.99,SW,235,6.0,15.0,33,0.00,,,0.00,meteohub,2013-01-29 19:57:00,
2013-01-29 15:02:00,72.3,42.4,29.99,NNW,348,2.0,17.0,34,0.00,,,0.00,meteohub,2013-01-29 20:02:00,
2013-01-29 15:12:00,72.3,42.4,29.99,WNW,302,7.0,17.0,34,0.00,,,0.00,meteohub,2013-01-29 20:12:00,
2013-01-29 15:17:00,71.6,41.7,29.99,WSW,258,10.0,16.0,34,0.00,,,0.00,meteohub,2013-01-29 20:17:00,
2013-01-29 15:22:00,71.2,41.5,29.99,NNW,348,8.0,17.0,34,0.00,,,0.00,meteohub,2013-01-29 20:22:00,
2013-01-29 15:27:00,70.9,41.2,29.99,ESE,122,2.0,17.0,34,0.00,,,0.00,meteohub,2013-01-29 20:27:00,
2013-01-29 15:32:00,71.1,41.4,29.99,NNW,348,11.0,13.0,34,0.00,,,0.00,meteohub,2013-01-29 20:32:00,
2013-01-29 15:37:00,70.2,41.2,29.99,NNW,348,3.0,13.0,35,0.00,,,0.00,meteohub,2013-01-29 20:37:00,
2013-01-29 15:42:00,69.1,41.0,29.99,North,10,2.0,12.0,36,0.00,,,0.00,meteohub,2013-01-29 20:42:00,
2013-01-29 15:47:00,68.7,41.4,29.99,NNW,348,3.0,11.0,37,0.00,,,0.00,meteohub,2013-01-29 20:47:00,
2013-01-29 15:52:00,68.4,41.2,29.99,NNE,32,5.0,9.0,37,0.00,,,0.00,meteohub,2013-01-29 20:52:00,
2013-01-29 15:57:00,68.0,41.5,29.99,NNW,348,2.0,6.0,38,0.00,,,0.00,meteohub,2013-01-29 20:57:00,
2013-01-29 16:07:00,70.3,42.8,29.99,NNW,348,5.0,6.0,37,0.00,,,0.00,meteohub,2013-01-29 21:07:00,
2013-01-29 16:12:00,69.6,41.5,29.99,East,100,3.0,8.0,36,0.00,,,0.00,meteohub,2013-01-29 21:12:00,
2013-01-29 16:17:00,68.4,41.2,29.99,West,280,6.0,11.0,37,0.00,,,0.00,meteohub,2013-01-29 21:17:00,
2013-01-29 16:22:00,67.3,40.8,29.99,SSE,168,5.0,11.0,38,0.00,,,0.00,meteohub,2013-01-29 21:22:00,
2013-01-29 16:27:00,66.7,41.7,29.96,SE,145,4.0,9.0,40,0.00,,,0.00,meteohub,2013-01-29 21:27:00,
2013-01-29 16:32:00,66.2,41.9,29.96,ESE,122,3.0,9.0,41,0.00,,,0.00,meteohub,2013-01-29 21:32:00,
2013-01-29 16:37:00,65.7,41.9,29.96,SE,145,5.0,9.0,42,0.00,,,0.00,meteohub,2013-01-29 21:37:00,
2013-01-29 16:42:00,65.7,42.6,29.96,SE,145,5.0,6.0,43,0.00,,,0.00,meteohub,2013-01-29 21:42:00,
2013-01-29 16:47:00,65.1,42.1,29.96,SSE,168,3.0,6.0,43,0.00,,,0.00,meteohub,2013-01-29 21:47:00,
2013-01-29 16:52:00,64.8,41.7,29.96,SE,145,4.0,6.0,43,0.00,,,0.00,meteohub,2013-01-29 21:52:00,
2013-01-29 16:57:00,64.4,42.1,29.96,SSE,168,5.0,6.0,44,0.00,,,0.00,meteohub,2013-01-29 21:57:00,
2013-01-29 17:02:00,63.9,41.5,29.96,SE,145,6.0,6.0,44,0.00,,,0.00,meteohub,2013-01-29 22:02:00,
2013-01-29 17:07:00,63.1,41.5,29.96,SE,145,4.0,6.0,45,0.00,,,0.00,meteohub,2013-01-29 22:07:00,
2013-01-29 17:12:00,62.4,41.4,29.96,SE,145,5.0,6.0,46,0.00,,,0.00,meteohub,2013-01-29 22:12:00,
2013-01-29 17:17:00,61.9,40.8,29.96,SE,145,5.0,6.0,46,0.00,,,0.00,meteohub,2013-01-29 22:17:00,
2013-01-29 17:22:00,61.2,40.8,29.96,SE,145,6.0,6.0,47,0.00,,,0.00,meteohub,2013-01-29 22:22:00,
2013-01-29 17:27:00,60.6,40.8,29.96,SE,145,5.0,7.0,48,0.00,,,0.00,meteohub,2013-01-29 22:27:00,
2013-01-29 17:32:00,59.9,40.6,29.96,SE,145,3.0,7.0,49,0.00,,,0.00,meteohub,2013-01-29 22:32:00,
2013-01-29 17:37:00,59.2,40.1,29.96,ESE,122,5.0,7.0,49,0.00,,,0.00,meteohub,2013-01-29 22:37:00,
2013-01-29 17:42:00,58.8,40.8,29.96,SSE,168,5.0,6.0,51,0.00,,,0.00,meteohub,2013-01-29 22:42:00,
2013-01-29 17:47:00,58.3,40.8,29.96,SE,145,5.0,6.0,52,0.00,,,0.00,meteohub,2013-01-29 22:47:00,
2013-01-29 17:52:00,57.7,40.8,29.96,SSW,212,0.0,6.0,53,0.00,,,0.00,meteohub,2013-01-29 22:52:00,
2013-01-29 17:57:00,57.2,40.8,29.93,SE,145,5.0,6.0,54,0.00,,,0.00,meteohub,2013-01-29 22:57:00,
2013-01-29 18:07:00,56.3,40.8,29.93,SSE,168,0.0,6.0,56,0.00,,,0.00,meteohub,2013-01-29 23:07:00,
2013-01-29 18:12:00,55.8,40.3,29.96,ESE,122,5.0,5.0,56,0.00,,,0.00,meteohub,2013-01-29 23:12:00,
2013-01-29 18:17:00,55.8,40.8,29.96,SSE,168,3.0,6.0,57,0.00,,,0.00,meteohub,2013-01-29 23:17:00,
2013-01-29 18:22:00,55.4,40.5,29.96,ESE,122,0.0,6.0,57,0.00,,,0.00,meteohub,2013-01-29 23:22:00,
2013-01-29 18:27:00,54.7,40.6,29.96,ESE,122,0.0,6.0,59,0.00,,,0.00,meteohub,2013-01-29 23:27:00,
2013-01-29 18:32:00,54.1,40.1,29.96,ESE,122,0.0,4.0,59,0.00,,,0.00,meteohub,2013-01-29 23:32:00,
2013-01-29 18:37:00,53.8,39.7,29.96,ESE,122,0.0,0.0,59,0.00,,,0.00,meteohub,2013-01-29 23:37:00,
2013-01-29 18:42:00,53.4,40.3,29.96,ESE,122,0.0,0.0,61,0.00,,,0.00,meteohub,2013-01-29 23:42:00,
2013-01-29 18:47:00,52.9,39.7,29.96,ESE,122,0.0,0.0,61,0.00,,,0.00,meteohub,2013-01-29 23:47:00,
2013-01-29 18:52:00,52.5,39.9,29.96,ESE,122,0.0,0.0,62,0.00,,,0.00,meteohub,2013-01-29 23:52:00,
2013-01-29 18:57:00,52.0,40.3,29.93,South,190,0.0,0.0,64,0.00,,,0.00,meteohub,2013-01-29 23:57:00,
2013-01-29 19:07:00,51.6,40.6,29.93,ESE,122,0.0,3.0,66,0.00,,,0.00,meteohub,2013-01-30 00:07:00,
2013-01-29 19:12:00,51.3,40.3,29.93,ESE,122,0.0,3.0,66,0.00,,,0.00,meteohub,2013-01-30 00:12:00,
2013-01-29 19:17:00,50.7,40.1,29.93,SSW,212,0.0,3.0,67,0.00,,,0.00,meteohub,2013-01-30 00:17:00,
2013-01-29 19:22:00,50.2,39.7,29.93,South,190,0.0,0.0,67,0.00,,,0.00,meteohub,2013-01-30 00:22:00,
2013-01-29 19:27:00,50.0,39.9,29.96,NNW,348,3.0,4.0,68,0.00,,,0.00,meteohub,2013-01-30 00:27:00,
2013-01-29 19:32:00,49.6,39.9,29.96,ESE,122,0.0,4.0,69,0.00,,,0.00,meteohub,2013-01-30 00:32:00,
2013-01-29 19:37:00,49.5,40.5,29.96,East,100,0.0,4.0,71,0.00,,,0.00,meteohub,2013-01-30 00:37:00,
2013-01-29 19:42:00,49.3,40.3,29.93,SSW,212,0.0,3.0,71,0.00,,,0.00,meteohub,2013-01-30 00:42:00,
2013-01-29 19:47:00,48.9,40.3,29.93,SSW,212,3.0,3.0,72,0.00,,,0.00,meteohub,2013-01-30 00:47:00,
2013-01-29 19:52:00,48.7,40.5,29.93,SSE,168,3.0,4.0,73,0.00,,,0.00,meteohub,2013-01-30 00:52:00,
2013-01-29 19:57:00,48.7,40.8,29.96,South,190,0.0,5.0,74,0.00,,,0.00,meteohub,2013-01-30 00:57:00,
2013-01-29 20:07:00,48.0,40.5,29.96,NNE,32,0.0,5.0,75,0.00,,,0.00,meteohub,2013-01-30 01:07:00,
2013-01-29 20:12:00,47.7,39.7,29.96,East,100,0.0,2.0,74,0.00,,,0.00,meteohub,2013-01-30 01:12:00,
2013-01-29 20:17:00,47.5,40.3,29.96,ENE,78,3.0,3.0,76,0.00,,,0.00,meteohub,2013-01-30 01:17:00,
2013-01-29 20:22:00,47.1,39.9,29.96,WSW,258,0.0,4.0,76,0.00,,,0.00,meteohub,2013-01-30 01:22:00,
2013-01-29 20:27:00,46.9,39.7,29.96,ESE,122,0.0,4.0,76,0.00,,,0.00,meteohub,2013-01-30 01:27:00,
2013-01-29 20:32:00,46.8,39.6,29.96,WSW,258,3.0,4.0,76,0.00,,,0.00,meteohub,2013-01-30 01:32:00,
2013-01-29 20:37:00,46.4,39.2,29.96,ESE,122,3.0,4.0,76,0.00,,,0.00,meteohub,2013-01-30 01:37:00,
2013-01-29 20:42:00,46.6,39.7,29.96,NNW,348,3.0,4.0,77,0.00,,,0.00,meteohub,2013-01-30 01:42:00,
2013-01-29 20:47:00,46.2,40.1,29.96,South,190,0.0,6.0,79,0.00,,,0.00,meteohub,2013-01-30 01:47:00,
2013-01-29 20:52:00,46.0,40.3,29.96,South,190,0.0,6.0,80,0.00,,,0.00,meteohub,2013-01-30 01:52:00,
2013-01-29 20:57:00,45.9,40.1,29.96,WNW,302,0.0,6.0,80,0.00,,,0.00,meteohub,2013-01-30 01:57:00,
2013-01-29 21:02:00,45.5,39.7,29.96,South,190,0.0,0.0,80,0.00,,,0.00,meteohub,2013-01-30 02:02:00,
2013-01-29 21:12:00,45.0,39.6,29.96,West,280,0.0,0.0,81,0.00,,,0.00,meteohub,2013-01-30 02:12:00,
2013-01-29 21:17:00,44.6,38.8,29.96,NNE,32,0.0,0.0,80,0.00,,,0.00,meteohub,2013-01-30 02:17:00,
2013-01-29 21:22:00,44.4,39.2,29.96,North,10,0.0,0.0,82,0.00,,,0.00,meteohub,2013-01-30 02:22:00,
2013-01-29 21:27:00,44.2,39.0,29.96,ENE,78,0.0,0.0,82,0.00,,,0.00,meteohub,2013-01-30 02:27:00,
2013-01-29 21:32:00,44.2,39.0,29.96,ESE,122,0.0,0.0,82,0.00,,,0.00,meteohub,2013-01-30 02:32:00,
2013-01-29 21:37:00,44.6,40.1,29.96,North,10,5.0,0.0,84,0.00,,,0.00,meteohub,2013-01-30 02:37:00,
2013-01-29 21:42:00,44.1,39.2,29.96,West,280,0.0,5.0,83,0.00,,,0.00,meteohub,2013-01-30 02:42:00,
2013-01-29 21:47:00,43.5,38.7,29.96,SSW,212,0.0,5.0,83,0.00,,,0.00,meteohub,2013-01-30 02:47:00,
2013-01-29 21:52:00,43.3,38.5,29.96,South,190,0.0,5.0,83,0.00,,,0.00,meteohub,2013-01-30 02:52:00,
2013-01-29 21:57:00,43.5,40.3,29.93,ENE,78,2.0,5.0,88,0.00,,,0.00,meteohub,2013-01-30 02:57:00,
2013-01-29 22:07:00,42.6,38.1,29.93,East,100,0.0,7.0,84,0.00,,,0.00,meteohub,2013-01-30 03:07:00,
2013-01-29 22:12:00,42.4,38.3,29.93,SSE,168,0.0,6.0,85,0.00,,,0.00,meteohub,2013-01-30 03:12:00,
2013-01-29 22:17:00,42.6,39.0,29.93,SSE,168,3.0,6.0,87,0.00,,,0.00,meteohub,2013-01-30 03:17:00,
2013-01-29 22:22:00,42.4,38.5,29.93,ENE,78,0.0,6.0,86,0.00,,,0.00,meteohub,2013-01-30 03:22:00,
2013-01-29 22:27:00,42.1,38.1,29.93,ENE,78,0.0,6.0,86,0.00,,,0.00,meteohub,2013-01-30 03:27:00,
2013-01-29 22:32:00,42.1,38.1,29.93,East,100,0.0,4.0,86,0.00,,,0.00,meteohub,2013-01-30 03:32:00,
2013-01-29 22:37:00,42.1,38.1,29.93,NNE,32,0.0,0.0,86,0.00,,,0.00,meteohub,2013-01-30 03:37:00,
2013-01-29 22:42:00,42.1,38.5,29.93,SW,235,0.0,0.0,87,0.00,,,0.00,meteohub,2013-01-30 03:42:00,
2013-01-29 22:47:00,42.1,38.5,29.93,SSE,168,0.0,0.0,87,0.00,,,0.00,meteohub,2013-01-30 03:47:00,
2013-01-29 22:52:00,41.7,38.1,29.93,SE,145,0.0,0.0,87,0.00,,,0.00,meteohub,2013-01-30 03:52:00,
2013-01-29 22:57:00,41.2,37.4,29.93,WSW,258,0.0,5.0,86,0.00,,,0.00,meteohub,2013-01-30 03:57:00,
2013-01-29 23:02:00,41.0,37.2,29.93,SSE,168,0.0,5.0,86,0.00,,,0.00,meteohub,2013-01-30 04:02:00,
2013-01-29 23:07:00,41.0,37.4,29.93,East,100,0.0,5.0,87,0.00,,,0.00,meteohub,2013-01-30 04:07:00,
2013-01-29 23:12:00,40.8,37.6,29.93,East,100,0.0,0.0,88,0.00,,,0.00,meteohub,2013-01-30 04:12:00,
2013-01-29 23:17:00,40.8,37.6,29.93,East,100,0.0,2.0,88,0.00,,,0.00,meteohub,2013-01-30 04:17:00,
2013-01-29 23:22:00,40.8,37.8,29.93,East,100,0.0,2.0,89,0.00,,,0.00,meteohub,2013-01-30 04:22:00,
2013-01-29 23:27:00,40.6,37.4,29.93,East,100,0.0,2.0,88,0.00,,,0.00,meteohub,2013-01-30 04:27:00,
2013-01-29 23:32:00,41.0,37.8,29.93,NNE,32,0.0,0.0,88,0.00,,,0.00,meteohub,2013-01-30 04:32:00,
2013-01-29 23:42:00,40.6,37.4,29.93,NNW,348,2.0,0.0,88,0.00,,,0.00,meteohub,2013-01-30 04:42:00,
2013-01-29 23:47:00,40.3,37.0,29.93,South,190,2.0,5.0,88,0.00,,,0.00,meteohub,2013-01-30 04:47:00,
2013-01-29 23:57:00,39.9,36.7,29.93,South,190,0.0,5.0,88,0.00,,,0.00,meteohub,2013-01-30 04:57:00,